x

Cedar Key, Fl (cdrf1) Weather Station

6:00am - Sat 27th Aug 2016 All times are EDT. -4 hours from GMT.

  • Wind
    15mph, 17mph gusts
  • Air Temp 77°f
  • Sea Pressure 1014.6mb
  • Cedar Key, Fl
  • Cedar Key, Fl

More Historic Weather Station data

Upgrade to MSW Pro to gain access to the past 30 days of data for over 8000 Wavebouys and Weather Stations around the globe.

Join Pro

Comparision Forecast

View Surf forecast
   
Sat 08/27 6:00am 15 17 mph 1014.6mb 77f
5:00am 13 15 mph 1014.6mb 77f
4:00am 9 11 mph 1014.9mb 78f
3:00am 9 11 mph 1015.5mb 79f
2:00am 13 15 mph 1016mb 80f
1:00am 11 13 mph 1016.9mb 80f
12:00am 13 15 mph 1017mb 81f
Fri 08/26 11:00pm 14 16 mph 1017.2mb 82f
10:00pm 16 18 mph 1016.5mb 83f
9:00pm 22 24 mph 1016.1mb 84f
8:00pm 11 15 mph 1015mb 86f
7:00pm 13 15 mph 1014.5mb 87f
6:00pm 14 16 mph 1014.4mb 88f
5:00pm 13 14 mph 1014.4mb 87f
4:00pm 10 11 mph 1014.6mb 89f
3:00pm 8 9 mph 1015.3mb 87f
2:00pm 18 21 mph 1016.3mb 86f
1:00pm 10 11 mph 1016.5mb 86f
12:00pm 14 16 mph 1017mb 84f
11:00am 16 18 mph 1017.1mb 83f
10:00am 18 20 mph 1017.3mb 82f
9:00am 16 17 mph 1017.3mb 80f
8:00am 17 20 mph 1017.2mb 79f
7:00am 14 16 mph 1016.8mb 78f
6:00am 13 15 mph 1016.6mb 78f
5:00am 7 8 mph 1016.8mb 78f
4:00am 11 14 mph 1016.9mb 78f
3:00am 10 13 mph 1016.9mb 78f
2:00am 10 14 mph 1017.2mb 79f
1:00am 16 17 mph 1017.5mb 80f
12:00am 15 16 mph 1017.6mb 80f
Thu 08/25 11:00pm 9 11 mph 1017.4mb 80f
10:00pm 11 17 mph 1017.2mb 83f
9:00pm 17 18 mph 1016.8mb 85f
8:00pm 15 16 mph 1016.5mb 87f
7:00pm 18 21 mph 1015.9mb 88f
6:00pm 14 16 mph 1015.3mb 89f
5:00pm 14 16 mph 1015.6mb 89f
4:00pm 14 16 mph 1016.3mb 89f
3:00pm 15 17 mph 1017.2mb 88f
2:00pm 10 13 mph 1018.1mb 87f
1:00pm 11 14 mph 1018.7mb 86f
12:00pm 13 16 mph 1019.4mb 84f
11:00am 15 17 mph 1019.4mb 82f
10:00am 14 17 mph 1019.7mb 80f
9:00am 7 10 mph 1019.7mb 77f
8:00am 10 11 mph 1019.4mb 75f
7:00am 7 10 mph 1018.7mb 76f
6:00am 10 13 mph 1018.1mb 78f
5:00am 10 13 mph 1017.9mb 77f
4:00am 10 14 mph 1017.9mb 77f
3:00am 8 11 mph 1018.3mb 77f
2:00am 9 13 mph 1018.9mb 78f
1:00am 7 10 mph 1019.6mb 78f
12:00am 13 15 mph 1019.7mb 80f
Wed 08/24 11:00pm 11 13 mph 1020mb 82f
10:00pm 16 18 mph 1020.2mb 84f
9:00pm 18 22 mph 1020mb 86f
8:00pm 14 17 mph 1019.6mb 88f
7:00pm 17 22 mph 1018.6mb 90f
6:00pm 13 14 mph 1018.2mb 90f
5:00pm 16 17 mph 1018.6mb 90f
4:00pm 14 15 mph 1019.2mb 90f
3:00pm 16 17 mph 1019.7mb 90f
2:00pm 15 17 mph 1020.4mb 89f
1:00pm 14 16 mph 1020.9mb 87f
12:00pm 16 18 mph 1021.6mb 86f
11:00am 16 20 mph 1021.9mb 84f
10:00am 16 20 mph 1021.7mb 82f
9:00am 16 17 mph 1021.3mb 80f
8:00am 11 14 mph 1021.3mb 79f
7:00am 10 13 mph 1020.9mb 78f
6:00am 8 10 mph 1020.4mb 78f
5:00am 8 9 mph 1020.2mb 78f
4:00am 6 8 mph 1020.4mb 79f
3:00am 7 9 mph 1020.7mb 80f
2:00am 14 15 mph 1020.6mb 81f
1:00am 14 16 mph 1021.2mb 79f
12:00am 11 14 mph 1021.2mb 78f
Tue 08/23 11:00pm 10 14 mph 1021mb 80f
10:00pm 10 11 mph 1020.2mb 80f
9:00pm 7 9 mph 1020.5mb 80f
8:00pm 9 14 mph 1021.3mb 80f
7:00pm 8 11 mph 1020.6mb 82f
6:00pm 6 7 mph 1019.9mb 82f
5:00pm 17 22 mph 1021.2mb 78f
4:00pm 6 10 mph 1020mb 89f
3:00pm 7 10 mph 1020.1mb 90f
2:00pm 6 9 mph 1021.4mb 90f
1:00pm 3 7 mph 1022.2mb 89f
12:00pm 2 3 mph 1022.5mb 88f